sensor_id;sensor_type;location;lat;lon;timestamp;pressure;altitude;pressure_sealevel;temperature;humidity
43553;BME280;29153;42.696;23.218;2022-08-26T00:01:18;94162.02;;;16.62;94.17
43553;BME280;29153;42.696;23.218;2022-08-26T00:03:46;94153.67;;;16.55;94.71
43553;BME280;29153;42.696;23.218;2022-08-26T00:06:14;94149.73;;;16.52;94.88
43553;BME280;29153;42.696;23.218;2022-08-26T00:08:43;94148.03;;;16.39;95.16
43553;BME280;29153;42.696;23.218;2022-08-26T00:11:12;94146.63;;;16.42;95.55
43553;BME280;29153;42.696;23.218;2022-08-26T00:13:40;94147.70;;;16.49;94.88
43553;BME280;29153;42.696;23.218;2022-08-26T00:16:09;94151.86;;;16.53;95.21
43553;BME280;29153;42.696;23.218;2022-08-26T00:18:38;94152.27;;;16.49;94.95
43553;BME280;29153;42.696;23.218;2022-08-26T00:21:07;94143.55;;;16.46;94.84
43553;BME280;29153;42.696;23.218;2022-08-26T00:23:36;94154.30;;;16.20;95.77
43553;BME280;29153;42.696;23.218;2022-08-26T00:26:05;94148.98;;;16.34;95.49
43553;BME280;29153;42.696;23.218;2022-08-26T00:28:33;94145.77;;;16.35;95.11
43553;BME280;29153;42.696;23.218;2022-08-26T00:31:01;94149.19;;;16.29;95.34
43553;BME280;29153;42.696;23.218;2022-08-26T00:33:29;94153.88;;;16.32;95.28
43553;BME280;29153;42.696;23.218;2022-08-26T00:35:57;94147.61;;;16.28;95.32
43553;BME280;29153;42.696;23.218;2022-08-26T00:38:25;94147.36;;;16.27;95.56
43553;BME280;29153;42.696;23.218;2022-08-26T00:40:54;94148.56;;;16.24;95.48
43553;BME280;29153;42.696;23.218;2022-08-26T00:43:24;94148.01;;;16.24;95.48
43553;BME280;29153;42.696;23.218;2022-08-26T00:46:04;94145.40;;;16.22;95.56
43553;BME280;29153;42.696;23.218;2022-08-26T00:48:27;94144.41;;;16.20;95.92
43553;BME280;29153;42.696;23.218;2022-08-26T00:51:02;94144.23;;;16.25;95.63
43553;BME280;29153;42.696;23.218;2022-08-26T00:53:33;94149.02;;;16.17;96.00
43553;BME280;29153;42.696;23.218;2022-08-26T00:56:09;94145.41;;;16.13;96.48
43553;BME280;29153;42.696;23.218;2022-08-26T00:58:38;94144.28;;;16.00;97.01
43553;BME280;29153;42.696;23.218;2022-08-26T01:01:08;94151.41;;;15.93;97.93
43553;BME280;29153;42.696;23.218;2022-08-26T01:03:37;94148.83;;;16.08;97.01
43553;BME280;29153;42.696;23.218;2022-08-26T01:06:05;94147.15;;;16.09;96.75
43553;BME280;29153;42.696;23.218;2022-08-26T01:08:33;94149.61;;;16.08;96.85
43553;BME280;29153;42.696;23.218;2022-08-26T01:11:02;94142.16;;;15.99;97.18
43553;BME280;29153;42.696;23.218;2022-08-26T01:13:31;94143.00;;;16.06;97.29
43553;BME280;29153;42.696;23.218;2022-08-26T01:16:01;94142.38;;;16.09;96.75
43553;BME280;29153;42.696;23.218;2022-08-26T01:18:29;94144.27;;;16.08;96.47
43553;BME280;29153;42.696;23.218;2022-08-26T01:23:47;94139.78;;;15.98;97.40
43553;BME280;29153;42.696;23.218;2022-08-26T01:26:35;94133.64;;;16.06;97.12
43553;BME280;29153;42.696;23.218;2022-08-26T01:28:50;94135.46;;;16.08;96.83
43553;BME280;29153;42.696;23.218;2022-08-26T01:31:22;94132.41;;;16.03;96.83
43553;BME280;29153;42.696;23.218;2022-08-26T01:33:54;94132.95;;;16.03;97.16
43553;BME280;29153;42.696;23.218;2022-08-26T01:36:21;94130.74;;;15.96;97.70
43553;BME280;29153;42.696;23.218;2022-08-26T01:38:49;94133.09;;;16.06;97.31
43553;BME280;29153;42.696;23.218;2022-08-26T01:41:16;94136.16;;;16.11;97.19
43553;BME280;29153;42.696;23.218;2022-08-26T01:43:47;94133.34;;;16.07;97.52
43553;BME280;29153;42.696;23.218;2022-08-26T01:46:16;94132.39;;;16.12;97.45
43553;BME280;29153;42.696;23.218;2022-08-26T01:48:46;94128.37;;;16.20;97.01
43553;BME280;29153;42.696;23.218;2022-08-26T01:51:15;94123.81;;;16.21;96.58
43553;BME280;29153;42.696;23.218;2022-08-26T01:53:43;94128.43;;;16.18;96.90
43553;BME280;29153;42.696;23.218;2022-08-26T01:56:11;94129.16;;;16.21;96.74
43553;BME280;29153;42.696;23.218;2022-08-26T01:58:50;94131.33;;;16.27;96.63
43553;BME280;29153;42.696;23.218;2022-08-26T02:01:17;94125.34;;;16.30;95.89
43553;BME280;29153;42.696;23.218;2022-08-26T02:06:38;94128.81;;;16.22;96.10
43553;BME280;29153;42.696;23.218;2022-08-26T02:09:05;94128.66;;;16.27;95.96
43553;BME280;29153;42.696;23.218;2022-08-26T02:11:34;94132.74;;;16.33;95.75
43553;BME280;29153;42.696;23.218;2022-08-26T02:14:07;94133.06;;;16.23;96.21
43553;BME280;29153;42.696;23.218;2022-08-26T02:16:36;94129.94;;;16.21;96.48
43553;BME280;29153;42.696;23.218;2022-08-26T02:19:04;94132.62;;;16.21;96.44
43553;BME280;29153;42.696;23.218;2022-08-26T02:21:33;94124.97;;;16.17;96.10
43553;BME280;29153;42.696;23.218;2022-08-26T02:24:09;94130.80;;;16.19;96.24
43553;BME280;29153;42.696;23.218;2022-08-26T02:26:38;94126.26;;;16.11;96.28
43553;BME280;29153;42.696;23.218;2022-08-26T02:29:19;94122.73;;;15.96;97.04
43553;BME280;29153;42.696;23.218;2022-08-26T02:31:36;94115.20;;;15.98;97.21
43553;BME280;29153;42.696;23.218;2022-08-26T02:34:18;94123.21;;;15.98;97.41
43553;BME280;29153;42.696;23.218;2022-08-26T02:36:44;94126.59;;;15.84;97.75
43553;BME280;29153;42.696;23.218;2022-08-26T02:39:12;94106.27;;;15.77;97.62
43553;BME280;29153;42.696;23.218;2022-08-26T02:41:40;94131.87;;;15.95;97.58
43553;BME280;29153;42.696;23.218;2022-08-26T02:44:08;94126.91;;;16.00;97.22
43553;BME280;29153;42.696;23.218;2022-08-26T02:46:36;94127.86;;;15.95;96.97
43553;BME280;29153;42.696;23.218;2022-08-26T02:49:04;94127.31;;;15.96;97.30
43553;BME280;29153;42.696;23.218;2022-08-26T02:51:32;94125.88;;;15.98;96.85
43553;BME280;29153;42.696;23.218;2022-08-26T02:54:00;94126.42;;;15.98;96.82
43553;BME280;29153;42.696;23.218;2022-08-26T02:56:28;94135.64;;;15.85;97.87
43553;BME280;29153;42.696;23.218;2022-08-26T02:58:55;94131.48;;;15.90;97.57
43553;BME280;29153;42.696;23.218;2022-08-26T03:01:25;94130.69;;;15.90;97.32
43553;BME280;29153;42.696;23.218;2022-08-26T03:03:54;94136.42;;;15.86;97.75
43553;BME280;29153;42.696;23.218;2022-08-26T03:06:23;94132.17;;;15.93;97.36
43553;BME280;29153;42.696;23.218;2022-08-26T03:08:51;94132.56;;;15.98;96.84
43553;BME280;29153;42.696;23.218;2022-08-26T03:11:19;94134.69;;;15.90;96.95
43553;BME280;29153;42.696;23.218;2022-08-26T03:13:46;94133.20;;;15.95;97.04
43553;BME280;29153;42.696;23.218;2022-08-26T03:16:14;94130.69;;;15.90;97.92
43553;BME280;29153;42.696;23.218;2022-08-26T03:18:42;94134.00;;;15.87;97.61
43553;BME280;29153;42.696;23.218;2022-08-26T03:21:14;94138.01;;;15.78;98.49
43553;BME280;29153;42.696;23.218;2022-08-26T03:23:43;94139.39;;;15.93;98.07
43553;BME280;29153;42.696;23.218;2022-08-26T03:26:13;94135.23;;;15.98;98.22
43553;BME280;29153;42.696;23.218;2022-08-26T03:28:41;94129.41;;;15.96;97.63
43553;BME280;29153;42.696;23.218;2022-08-26T03:31:28;94131.92;;;15.92;97.79
43553;BME280;29153;42.696;23.218;2022-08-26T03:33:56;94129.50;;;15.85;97.97
43553;BME280;29153;42.696;23.218;2022-08-26T03:36:24;94136.72;;;15.93;98.05
43553;BME280;29153;42.696;23.218;2022-08-26T03:38:51;94133.89;;;15.98;97.59
43553;BME280;29153;42.696;23.218;2022-08-26T03:41:19;94133.99;;;15.96;97.51
43553;BME280;29153;42.696;23.218;2022-08-26T03:43:47;94136.72;;;16.02;96.99
43553;BME280;29153;42.696;23.218;2022-08-26T03:46:17;94131.77;;;15.98;96.66
43553;BME280;29153;42.696;23.218;2022-08-26T03:48:46;94132.17;;;15.93;97.06
43553;BME280;29153;42.696;23.218;2022-08-26T03:51:16;94139.08;;;16.03;96.75
43553;BME280;29153;42.696;23.218;2022-08-26T03:53:45;94139.33;;;16.04;96.69
43553;BME280;29153;42.696;23.218;2022-08-26T03:56:13;94138.28;;;16.11;96.21
43553;BME280;29153;42.696;23.218;2022-08-26T03:58:41;94133.34;;;16.07;96.58
43553;BME280;29153;42.696;23.218;2022-08-26T04:01:14;94134.59;;;16.01;96.95
43553;BME280;29153;42.696;23.218;2022-08-26T04:03:41;94132.08;;;15.96;97.51
43553;BME280;29153;42.696;23.218;2022-08-26T04:06:33;94128.64;;;16.04;97.44
43553;BME280;29153;42.696;23.218;2022-08-26T04:09:03;94133.58;;;16.08;96.74
43553;BME280;29153;42.696;23.218;2022-08-26T04:11:32;94132.30;;;16.14;96.65
43553;BME280;29153;42.696;23.218;2022-08-26T04:14:03;94133.06;;;16.23;96.85
43553;BME280;29153;42.696;23.218;2022-08-26T04:16:32;94133.16;;;16.21;97.20
43553;BME280;29153;42.696;23.218;2022-08-26T04:18:59;94129.14;;;16.29;97.09
43553;BME280;29153;42.696;23.218;2022-08-26T04:21:27;94131.93;;;16.42;96.83
43553;BME280;29153;42.696;23.218;2022-08-26T04:23:55;94129.09;;;16.47;96.06
43553;BME280;29153;42.696;23.218;2022-08-26T04:26:23;94135.67;;;16.49;96.53
43553;BME280;29153;42.696;23.218;2022-08-26T04:28:53;94131.19;;;16.56;96.28
43553;BME280;29153;42.696;23.218;2022-08-26T04:31:22;94133.52;;;16.66;95.74
43553;BME280;29153;42.696;23.218;2022-08-26T04:33:51;94130.67;;;16.71;95.91
43553;BME280;29153;42.696;23.218;2022-08-26T04:36:18;94131.09;;;16.81;95.76
43553;BME280;29153;42.696;23.218;2022-08-26T04:38:46;94136.09;;;16.92;95.98
43553;BME280;29153;42.696;23.218;2022-08-26T04:41:19;94128.70;;;17.03;96.02
43553;BME280;29153;42.696;23.218;2022-08-26T04:43:47;94128.53;;;17.08;95.17
43553;BME280;29153;42.696;23.218;2022-08-26T04:46:18;94129.92;;;17.14;94.37
43553;BME280;29153;42.696;23.218;2022-08-26T04:48:48;94134.02;;;17.26;94.67
43553;BME280;29153;42.696;23.218;2022-08-26T04:51:18;94126.17;;;17.36;94.50
43553;BME280;29153;42.696;23.218;2022-08-26T04:53:48;94137.27;;;17.47;93.44
43553;BME280;29153;42.696;23.218;2022-08-26T04:56:15;94127.95;;;17.53;92.98
43553;BME280;29153;42.696;23.218;2022-08-26T04:58:43;94126.70;;;17.65;91.82
43553;BME280;29153;42.696;23.218;2022-08-26T05:01:11;94131.02;;;17.78;92.90
43553;BME280;29153;42.696;23.218;2022-08-26T05:03:38;94127.95;;;17.88;92.84
43553;BME280;29153;42.696;23.218;2022-08-26T05:06:06;94128.98;;;18.02;92.02
43553;BME280;29153;42.696;23.218;2022-08-26T05:08:34;94126.70;;;18.12;91.54
43553;BME280;29153;42.696;23.218;2022-08-26T05:11:04;94129.64;;;18.26;90.99
43553;BME280;29153;42.696;23.218;2022-08-26T05:13:32;94137.48;;;18.37;91.00
43553;BME280;29153;42.696;23.218;2022-08-26T05:16:05;94137.95;;;18.45;91.00
43553;BME280;29153;42.696;23.218;2022-08-26T05:18:34;94130.48;;;18.50;90.66
43553;BME280;29153;42.696;23.218;2022-08-26T05:21:01;94136.46;;;18.56;89.93
43553;BME280;29153;42.696;23.218;2022-08-26T05:23:30;94140.04;;;18.66;89.94
43553;BME280;29153;42.696;23.218;2022-08-26T05:25:58;94137.72;;;18.77;89.79
43553;BME280;29153;42.696;23.218;2022-08-26T05:28:28;94139.52;;;18.85;89.65
43553;BME280;29153;42.696;23.218;2022-08-26T05:30:55;94138.63;;;18.93;89.43
43553;BME280;29153;42.696;23.218;2022-08-26T05:33:23;94141.67;;;19.03;90.59
43553;BME280;29153;42.696;23.218;2022-08-26T05:35:51;94140.41;;;19.13;89.36
43553;BME280;29153;42.696;23.218;2022-08-26T05:38:20;94136.95;;;19.19;88.81
43553;BME280;29153;42.696;23.218;2022-08-26T05:40:49;94138.51;;;19.26;90.52
43553;BME280;29153;42.696;23.218;2022-08-26T05:43:18;94138.51;;;19.26;90.52
43553;BME280;29153;42.696;23.218;2022-08-26T05:45:48;94151.49;;;19.36;88.70
43553;BME280;29153;42.696;23.218;2022-08-26T05:48:18;94146.92;;;19.48;88.99
43553;BME280;29153;42.696;23.218;2022-08-26T05:50:48;94150.70;;;19.72;88.37
43553;BME280;29153;42.696;23.218;2022-08-26T05:53:19;94150.70;;;19.72;88.37
43553;BME280;29153;42.696;23.218;2022-08-26T05:55:49;94147.57;;;20.04;89.11
43553;BME280;29153;42.696;23.218;2022-08-26T05:58:19;94147.57;;;20.04;89.11
43553;BME280;29153;42.696;23.218;2022-08-26T06:01:05;94142.82;;;20.19;89.09
43553;BME280;29153;42.696;23.218;2022-08-26T06:03:35;94152.86;;;20.34;89.55
43553;BME280;29153;42.696;23.218;2022-08-26T06:06:05;94151.27;;;20.39;86.81
43553;BME280;29153;42.696;23.218;2022-08-26T06:08:33;94152.78;;;20.52;88.80
43553;BME280;29153;42.696;23.218;2022-08-26T06:11:04;94157.55;;;20.59;88.70
43553;BME280;29153;42.696;23.218;2022-08-26T06:13:33;94152.46;;;20.69;89.54
43553;BME280;29153;42.696;23.218;2022-08-26T06:16:06;94153.19;;;20.76;89.64
43553;BME280;29153;42.696;23.218;2022-08-26T06:18:37;94158.41;;;20.84;90.52
43553;BME280;29153;42.696;23.218;2022-08-26T06:21:13;94156.78;;;20.96;89.47
43553;BME280;29153;42.696;23.218;2022-08-26T06:23:42;94157.59;;;21.06;90.45
43553;BME280;29153;42.696;23.218;2022-08-26T06:26:29;94155.98;;;21.11;90.80
43553;BME280;29153;42.696;23.218;2022-08-26T06:28:57;94161.88;;;21.22;90.12
43553;BME280;29153;42.696;23.218;2022-08-26T06:31:25;94148.52;;;21.35;90.01
43553;BME280;29153;42.696;23.218;2022-08-26T06:33:53;94156.34;;;21.56;90.26
43553;BME280;29153;42.696;23.218;2022-08-26T06:36:24;94158.91;;;21.78;90.10
43553;BME280;29153;42.696;23.218;2022-08-26T06:38:54;94158.41;;;21.98;89.43
43553;BME280;29153;42.696;23.218;2022-08-26T06:41:22;94166.03;;;22.11;83.64
43553;BME280;29153;42.696;23.218;2022-08-26T06:43:51;94172.97;;;22.22;77.93
43553;BME280;29153;42.696;23.218;2022-08-26T06:46:20;94180.08;;;22.40;78.06
43553;BME280;29153;42.696;23.218;2022-08-26T06:48:48;94179.98;;;22.55;79.64
43553;BME280;29153;42.696;23.218;2022-08-26T06:51:18;94172.63;;;22.72;79.76
43553;BME280;29153;42.696;23.218;2022-08-26T06:53:47;94173.59;;;22.83;76.18
43553;BME280;29153;42.696;23.218;2022-08-26T06:56:18;94180.27;;;22.89;73.60
43553;BME280;29153;42.696;23.218;2022-08-26T06:58:46;94175.71;;;22.93;72.18
43553;BME280;29153;42.696;23.218;2022-08-26T07:01:23;94169.18;;;23.07;73.06
43553;BME280;29153;42.696;23.218;2022-08-26T07:03:54;94170.99;;;23.22;73.78
43553;BME280;29153;42.696;23.218;2022-08-26T07:06:22;94177.31;;;23.43;73.70
43553;BME280;29153;42.696;23.218;2022-08-26T07:08:51;94179.06;;;23.54;70.88
43553;BME280;29153;42.696;23.218;2022-08-26T07:11:19;94174.75;;;23.76;70.75
43553;BME280;29153;42.696;23.218;2022-08-26T07:13:49;94175.96;;;23.79;67.61
43553;BME280;29153;42.696;23.218;2022-08-26T07:16:17;94181.15;;;23.91;65.94
43553;BME280;29153;42.696;23.218;2022-08-26T07:18:45;94176.13;;;24.06;68.53
43553;BME280;29153;42.696;23.218;2022-08-26T07:21:15;94182.69;;;24.18;67.00
43553;BME280;29153;42.696;23.218;2022-08-26T07:23:42;94158.80;;;24.24;68.64
43553;BME280;29153;42.696;23.218;2022-08-26T07:26:18;94180.92;;;24.46;66.97
43553;BME280;29153;42.696;23.218;2022-08-26T07:28:42;94183.09;;;24.33;63.27
43553;BME280;29153;42.696;23.218;2022-08-26T07:31:12;94184.52;;;24.40;62.10
43553;BME280;29153;42.696;23.218;2022-08-26T07:33:40;94181.31;;;24.48;65.69
43553;BME280;29153;42.696;23.218;2022-08-26T07:36:09;94181.81;;;24.57;64.02
43553;BME280;29153;42.696;23.218;2022-08-26T07:38:38;94182.06;;;24.62;67.75
43553;BME280;29153;42.696;23.218;2022-08-26T07:41:06;94181.48;;;24.62;66.36
43553;BME280;29153;42.696;23.218;2022-08-26T07:43:36;94176.31;;;24.67;66.70
43553;BME280;29153;42.696;23.218;2022-08-26T07:46:04;94176.86;;;24.46;61.81
43553;BME280;29153;42.696;23.218;2022-08-26T07:48:33;94183.30;;;24.51;63.22
43553;BME280;29153;42.696;23.218;2022-08-26T07:51:01;94176.19;;;24.56;67.38
43553;BME280;29153;42.696;23.218;2022-08-26T07:53:28;94181.31;;;24.65;70.56
43553;BME280;29153;42.696;23.218;2022-08-26T07:55:56;94182.80;;;24.75;68.36
43553;BME280;29153;42.696;23.218;2022-08-26T07:58:24;94185.84;;;24.87;69.29
43553;BME280;29153;42.696;23.218;2022-08-26T08:00:52;94188.91;;;25.02;68.99
43553;BME280;29153;42.696;23.218;2022-08-26T08:03:20;94181.56;;;25.03;69.27
43553;BME280;29153;42.696;23.218;2022-08-26T08:05:47;94183.06;;;25.20;67.32
43553;BME280;29153;42.696;23.218;2022-08-26T08:08:15;94183.84;;;25.21;58.85
43553;BME280;29153;42.696;23.218;2022-08-26T08:10:43;94186.95;;;25.43;64.20
43553;BME280;29153;42.696;23.218;2022-08-26T08:13:11;94186.83;;;25.53;61.85
43553;BME280;29153;42.696;23.218;2022-08-26T08:15:39;94184.17;;;25.56;60.73
43553;BME280;29153;42.696;23.218;2022-08-26T08:18:07;94181.08;;;25.54;60.64
43553;BME280;29153;42.696;23.218;2022-08-26T08:20:35;94181.81;;;25.31;57.57
43553;BME280;29153;42.696;23.218;2022-08-26T08:23:03;94182.44;;;25.37;61.59
43553;BME280;29153;42.696;23.218;2022-08-26T08:25:32;94177.11;;;25.48;57.11
43553;BME280;29153;42.696;23.218;2022-08-26T08:28:00;94180.18;;;25.98;59.33
43553;BME280;29153;42.696;23.218;2022-08-26T08:30:27;94180.63;;;26.07;54.43
43553;BME280;29153;42.696;23.218;2022-08-26T08:32:55;94171.11;;;26.34;56.36
43553;BME280;29153;42.696;23.218;2022-08-26T08:35:23;94180.20;;;26.84;54.34
43553;BME280;29153;42.696;23.218;2022-08-26T08:37:52;94178.13;;;27.05;51.03
43553;BME280;29153;42.696;23.218;2022-08-26T08:40:23;94173.30;;;27.11;51.66
43553;BME280;29153;42.696;23.218;2022-08-26T08:43:02;94179.00;;;27.58;53.49
43553;BME280;29153;42.696;23.218;2022-08-26T08:45:41;94173.73;;;27.84;50.30
43553;BME280;29153;42.696;23.218;2022-08-26T08:48:19;94168.98;;;28.27;47.91
43553;BME280;29153;42.696;23.218;2022-08-26T08:50:52;94166.77;;;28.95;47.87
43553;BME280;29153;42.696;23.218;2022-08-26T08:53:41;94164.66;;;28.84;44.79
43553;BME280;29153;42.696;23.218;2022-08-26T08:59:12;94158.64;;;29.17;44.00
43553;BME280;29153;42.696;23.218;2022-08-26T09:04:58;94155.66;;;29.30;48.15
43553;BME280;29153;42.696;23.218;2022-08-26T09:07:37;94150.62;;;29.22;46.41
43553;BME280;29153;42.696;23.218;2022-08-26T09:12:53;94149.88;;;29.69;44.86
43553;BME280;29153;42.696;23.218;2022-08-26T09:15:23;94152.14;;;29.78;42.77
43553;BME280;29153;42.696;23.218;2022-08-26T09:17:55;94143.62;;;29.47;39.88
43553;BME280;29153;42.696;23.218;2022-08-26T09:20:42;94147.70;;;28.91;40.57
43553;BME280;29153;42.696;23.218;2022-08-26T09:23:08;94139.10;;;28.97;42.44
43553;BME280;29153;42.696;23.218;2022-08-26T09:25:49;94144.83;;;29.13;43.13
43553;BME280;29153;42.696;23.218;2022-08-26T09:28:18;94142.38;;;29.00;42.77
43553;BME280;29153;42.696;23.218;2022-08-26T09:33:31;94134.70;;;28.80;44.80
43553;BME280;29153;42.696;23.218;2022-08-26T09:36:17;94136.38;;;28.93;40.34
43553;BME280;29153;42.696;23.218;2022-08-26T09:38:46;94138.18;;;28.88;37.63
43553;BME280;29153;42.696;23.218;2022-08-26T09:41:28;94141.16;;;28.78;37.28
43553;BME280;29153;42.696;23.218;2022-08-26T09:44:16;94141.66;;;28.88;37.45
43553;BME280;29153;42.696;23.218;2022-08-26T09:46:50;94141.36;;;29.09;44.00
43553;BME280;29153;42.696;23.218;2022-08-26T09:54:43;94093.20;;;29.14;44.59
43553;BME280;29153;42.696;23.218;2022-08-26T09:57:26;94131.68;;;29.30;43.04
43553;BME280;29153;42.696;23.218;2022-08-26T09:59:54;94133.17;;;29.09;38.68
43553;BME280;29153;42.696;23.218;2022-08-26T10:05:06;94130.63;;;28.77;36.21
43553;BME280;29153;42.696;23.218;2022-08-26T10:07:41;94128.91;;;28.28;37.61
43553;BME280;29153;42.696;23.218;2022-08-26T10:10:12;94127.97;;;28.12;39.37
43553;BME280;29153;42.696;23.218;2022-08-26T10:12:52;94126.97;;;28.21;37.34
43553;BME280;29153;42.696;23.218;2022-08-26T10:15:11;94126.60;;;28.59;37.79
43553;BME280;29153;42.696;23.218;2022-08-26T10:17:43;94121.48;;;28.79;36.57
43553;BME280;29153;42.696;23.218;2022-08-26T10:20:16;94122.66;;;28.67;40.22
43553;BME280;29153;42.696;23.218;2022-08-26T10:25:23;94114.52;;;28.71;38.57
43553;BME280;29153;42.696;23.218;2022-08-26T10:27:59;94115.11;;;28.60;36.65
43553;BME280;29153;42.696;23.218;2022-08-26T10:30:30;94117.05;;;28.66;42.16
43553;BME280;29153;42.696;23.218;2022-08-26T10:33:01;94120.28;;;28.83;37.22
43553;BME280;29153;42.696;23.218;2022-08-26T10:35:29;94117.41;;;28.68;35.60
43553;BME280;29153;42.696;23.218;2022-08-26T10:38:08;94115.80;;;29.11;39.33
43553;BME280;29153;42.696;23.218;2022-08-26T10:40:45;94112.20;;;29.50;37.32
43553;BME280;29153;42.696;23.218;2022-08-26T10:43:28;94115.86;;;29.33;32.89
43553;BME280;29153;42.696;23.218;2022-08-26T10:46:04;94115.05;;;29.36;35.09
43553;BME280;29153;42.696;23.218;2022-08-26T10:48:45;94122.19;;;29.45;33.84
43553;BME280;29153;42.696;23.218;2022-08-26T10:51:14;94112.58;;;29.30;35.35
43553;BME280;29153;42.696;23.218;2022-08-26T10:53:53;94116.34;;;29.65;36.05
43553;BME280;29153;42.696;23.218;2022-08-26T10:56:51;94116.80;;;30.01;37.89
43553;BME280;29153;42.696;23.218;2022-08-26T10:59:33;94108.10;;;29.72;34.79
43553;BME280;29153;42.696;23.218;2022-08-26T11:04:55;94098.86;;;30.00;36.19
43553;BME280;29153;42.696;23.218;2022-08-26T11:07:32;94096.02;;;29.92;32.85
43553;BME280;29153;42.696;23.218;2022-08-26T11:10:09;94104.01;;;29.72;32.88
43553;BME280;29153;42.696;23.218;2022-08-26T11:18:00;94091.50;;;29.53;34.68
43553;BME280;29153;42.696;23.218;2022-08-26T11:20:39;94095.75;;;29.57;33.21
43553;BME280;29153;42.696;23.218;2022-08-26T11:28:45;94085.82;;;29.77;33.63
43553;BME280;29153;42.696;23.218;2022-08-26T11:34:08;94089.83;;;29.84;36.01
43553;BME280;29153;42.696;23.218;2022-08-26T11:39:33;94093.20;;;29.80;33.01
43553;BME280;29153;42.696;23.218;2022-08-26T11:44:54;94088.22;;;29.24;33.78
43553;BME280;29153;42.696;23.218;2022-08-26T11:47:28;94083.03;;;29.14;34.89
43553;BME280;29153;42.696;23.218;2022-08-26T11:50:13;94078.83;;;29.32;31.80
43553;BME280;29153;42.696;23.218;2022-08-26T11:53:17;94072.81;;;29.51;35.72
43553;BME280;29153;42.696;23.218;2022-08-26T11:55:24;94077.33;;;29.68;33.72
43553;BME280;29153;42.696;23.218;2022-08-26T11:57:54;94074.36;;;29.71;31.65
43553;BME280;29153;42.696;23.218;2022-08-26T12:00:34;94076.09;;;29.54;29.88
43553;BME280;29153;42.696;23.218;2022-08-26T12:03:05;94068.31;;;29.71;32.72
43553;BME280;29153;42.696;23.218;2022-08-26T12:05:41;94070.25;;;29.33;30.81
43553;BME280;29153;42.696;23.218;2022-08-26T12:08:09;94060.62;;;28.56;32.48
43553;BME280;29153;42.696;23.218;2022-08-26T12:10:37;94070.98;;;28.86;32.95
43553;BME280;29153;42.696;23.218;2022-08-26T12:13:06;94066.75;;;28.78;31.74
43553;BME280;29153;42.696;23.218;2022-08-26T12:15:34;94058.19;;;29.02;33.99
43553;BME280;29153;42.696;23.218;2022-08-26T12:18:17;94061.11;;;29.03;33.51
43553;BME280;29153;42.696;23.218;2022-08-26T12:20:49;94061.16;;;28.63;32.42
43553;BME280;29153;42.696;23.218;2022-08-26T12:26:26;94044.22;;;28.70;32.49
43553;BME280;29153;42.696;23.218;2022-08-26T12:28:59;94038.55;;;28.99;33.85
43553;BME280;29153;42.696;23.218;2022-08-26T12:31:37;94030.80;;;29.16;35.14
43553;BME280;29153;42.696;23.218;2022-08-26T12:34:09;94005.46;;;28.97;33.49
43553;BME280;29153;42.696;23.218;2022-08-26T12:36:42;94026.47;;;29.00;33.15
43553;BME280;29153;42.696;23.218;2022-08-26T12:39:10;94031.56;;;28.94;31.53
43553;BME280;29153;42.696;23.218;2022-08-26T12:41:43;94029.69;;;28.84;31.35
43553;BME280;29153;42.696;23.218;2022-08-26T12:44:34;94036.82;;;28.64;30.63
43553;BME280;29153;42.696;23.218;2022-08-26T12:50:09;94023.38;;;28.35;30.51
43553;BME280;29153;42.696;23.218;2022-08-26T12:52:44;94019.92;;;28.24;29.96
43553;BME280;29153;42.696;23.218;2022-08-26T12:55:25;94025.66;;;28.44;32.23
43553;BME280;29153;42.696;23.218;2022-08-26T13:00:48;94021.91;;;28.53;31.43
43553;BME280;29153;42.696;23.218;2022-08-26T13:09:04;94023.91;;;28.42;31.97
43553;BME280;29153;42.696;23.218;2022-08-26T13:11:34;94016.16;;;28.40;33.95
43553;BME280;29153;42.696;23.218;2022-08-26T13:14:13;94012.15;;;28.56;34.97
43553;BME280;29153;42.696;23.218;2022-08-26T13:16:42;94009.26;;;28.51;33.71
43553;BME280;29153;42.696;23.218;2022-08-26T13:19:18;94005.63;;;28.68;35.77
43553;BME280;29153;42.696;23.218;2022-08-26T13:21:47;94007.67;;;28.86;35.32
43553;BME280;29153;42.696;23.218;2022-08-26T13:24:18;94006.38;;;28.79;33.54
43553;BME280;29153;42.696;23.218;2022-08-26T13:26:47;94001.83;;;28.84;33.43
43553;BME280;29153;42.696;23.218;2022-08-26T13:29:15;93998.42;;;28.73;35.18
43553;BME280;29153;42.696;23.218;2022-08-26T13:31:44;93994.27;;;28.51;33.32
43553;BME280;29153;42.696;23.218;2022-08-26T13:34:15;93994.52;;;28.45;36.21
43553;BME280;29153;42.696;23.218;2022-08-26T13:36:46;93995.63;;;28.22;35.49
43553;BME280;29153;42.696;23.218;2022-08-26T13:39:14;93993.64;;;27.82;34.65
43553;BME280;29153;42.696;23.218;2022-08-26T13:41:41;93993.63;;;27.86;34.23
43553;BME280;29153;42.696;23.218;2022-08-26T13:44:10;93992.63;;;27.91;36.24
43553;BME280;29153;42.696;23.218;2022-08-26T13:46:40;93994.13;;;28.06;33.55
43553;BME280;29153;42.696;23.218;2022-08-26T13:49:08;93991.41;;;28.03;35.21
43553;BME280;29153;42.696;23.218;2022-08-26T13:51:36;93994.39;;;27.93;34.51
43553;BME280;29153;42.696;23.218;2022-08-26T13:54:04;93993.88;;;28.20;36.11
43553;BME280;29153;42.696;23.218;2022-08-26T13:56:33;93989.20;;;28.24;35.91
43553;BME280;29153;42.696;23.218;2022-08-26T13:59:03;93984.45;;;28.35;39.02
43553;BME280;29153;42.696;23.218;2022-08-26T14:01:31;93992.51;;;28.20;35.13
43553;BME280;29153;42.696;23.218;2022-08-26T14:03:59;93988.81;;;28.22;34.68
43553;BME280;29153;42.696;23.218;2022-08-26T14:06:28;93983.23;;;28.43;35.95
43553;BME280;29153;42.696;23.218;2022-08-26T14:08:56;93987.36;;;28.65;38.18
43553;BME280;29153;42.696;23.218;2022-08-26T14:11:24;93982.94;;;28.85;40.91
43553;BME280;29153;42.696;23.218;2022-08-26T14:13:53;93984.57;;;28.76;34.56